Tajin Airport
MMPA : now visible

Airfield :











YOU CAN JOIN US ON...

 
LOGIN :

Register | Disclaimer

   EN    FR    IT 

 









Legend :    VFR   Marginal VFR   IFR   Intensive IFR   Very Intensive IFR
Visi :
Ceiling :
>= 8 km
>= 3000ft
5 to 8 km
1000 to 3000 ft
1500m to 5 km
500 to 1000 ft
800 to 1500m
200 to 500 ft
< 800m
< 200 ft
Symbols :   Thunderstorms  Fog  Heavy snow  Heavy precipitations  Wind > 20 kt







- Airport Elevation : 497 ft
- IATA code : PAZ


MMPA - Tajin

METAR N/A
TAF TAF MMPA
Valid from the 22 at 06:00 until the 23 at 06:00 UTC


220456Z 2206/2306 09005KT 5SM BR BKN006 OVC010
FM221000 00000KT 1SM BR OVC005
TEMPO 2211/2215 1/2SM FG VV003
FM221600 13005KT 3SM HZ BKN010 OVC050
FM221800 13010KT 5SM HZ BKN050
TEMPO 2222/2302 3SM DZ BR OVC020
FM230300 13005KT 4SM HZ SCT005 BKN010 OVC015
MMFR FIR / North America



MET'MAP, your aeronautical weather chart ! - Copyright ORBIFLY December 2007 - Disclaimer

ORBIFLY MET'MAP TEAM :

Programming & Development : Alexandra Zaïnal
Concept & Development : Baudouin d'Aumeries
Co-Development & Prog : Marc-Olivier Méhu
Technical & hardware support : Manuel Goepfert

Contact : metmap@orbifly.com




SOURCES & CREDITS :

   NOAA       Earth
Advisory